sensor_id;sensor_type;location;lat;lon;timestamp;pressure;altitude;pressure_sealevel;temperature;humidity
21361;BME280;10839;43.206;23.550;2023-06-22T00:02:00;97470.25;;;22.58;72.29
21361;BME280;10839;43.206;23.550;2023-06-22T00:04:26;97468.75;;;22.83;70.52
21361;BME280;10839;43.206;23.550;2023-06-22T00:06:52;97471.44;;;22.72;72.80
21361;BME280;10839;43.206;23.550;2023-06-22T00:09:18;97472.94;;;22.53;75.70
21361;BME280;10839;43.206;23.550;2023-06-22T00:11:45;97492.59;;;22.45;76.85
21361;BME280;10839;43.206;23.550;2023-06-22T00:14:11;97467.09;;;22.13;78.80
21361;BME280;10839;43.206;23.550;2023-06-22T00:16:37;97478.84;;;22.40;75.89
21361;BME280;10839;43.206;23.550;2023-06-22T00:19:02;97479.03;;;22.60;76.00
21361;BME280;10839;43.206;23.550;2023-06-22T00:21:29;97470.84;;;22.65;74.31
21361;BME280;10839;43.206;23.550;2023-06-22T00:23:56;97475.84;;;22.73;73.79
21361;BME280;10839;43.206;23.550;2023-06-22T00:26:23;97469.38;;;22.95;71.11
21361;BME280;10839;43.206;23.550;2023-06-22T00:28:48;97457.88;;;22.98;69.98
21361;BME280;10839;43.206;23.550;2023-06-22T00:31:14;97451.88;;;23.01;71.04
21361;BME280;10839;43.206;23.550;2023-06-22T00:33:40;97462.81;;;22.96;71.16
21361;BME280;10839;43.206;23.550;2023-06-22T00:36:06;97461.66;;;22.87;70.28
21361;BME280;10839;43.206;23.550;2023-06-22T00:38:38;97451.84;;;22.54;71.58
21361;BME280;10839;43.206;23.550;2023-06-22T00:41:07;97449.78;;;22.44;71.79
21361;BME280;10839;43.206;23.550;2023-06-22T00:43:35;97464.06;;;22.46;71.81
21361;BME280;10839;43.206;23.550;2023-06-22T00:46:02;97461.44;;;22.56;71.51
21361;BME280;10839;43.206;23.550;2023-06-22T00:48:29;97462.88;;;22.64;73.50
21361;BME280;10839;43.206;23.550;2023-06-22T00:50:54;97453.56;;;22.65;74.92
21361;BME280;10839;43.206;23.550;2023-06-22T00:53:22;97464.03;;;22.41;74.68
21361;BME280;10839;43.206;23.550;2023-06-22T00:55:49;97472.19;;;22.31;73.45
21361;BME280;10839;43.206;23.550;2023-06-22T00:58:18;97477.19;;;22.39;73.08
21361;BME280;10839;43.206;23.550;2023-06-22T01:00:48;97469.03;;;22.18;73.84
21361;BME280;10839;43.206;23.550;2023-06-22T01:03:14;97451.78;;;22.17;73.78
21361;BME280;10839;43.206;23.550;2023-06-22T01:05:42;97461.66;;;22.18;73.48
21361;BME280;10839;43.206;23.550;2023-06-22T01:08:16;97473.28;;;22.30;73.58
21361;BME280;10839;43.206;23.550;2023-06-22T01:11:01;97458.91;;;22.18;73.77
21361;BME280;10839;43.206;23.550;2023-06-22T01:13:57;97462.84;;;22.27;73.32
21361;BME280;10839;43.206;23.550;2023-06-22T01:16:31;97463.94;;;22.31;73.14
21361;BME280;10839;43.206;23.550;2023-06-22T01:19:04;97462.09;;;22.37;72.32
21361;BME280;10839;43.206;23.550;2023-06-22T01:21:34;97456.50;;;22.53;71.94
21361;BME280;10839;43.206;23.550;2023-06-22T01:29:59;97478.22;;;22.33;75.12
21361;BME280;10839;43.206;23.550;2023-06-22T01:32:32;97470.66;;;22.45;72.95
21361;BME280;10839;43.206;23.550;2023-06-22T01:35:01;97472.53;;;22.40;73.07
21361;BME280;10839;43.206;23.550;2023-06-22T01:37:30;97481.03;;;22.38;73.09
21361;BME280;10839;43.206;23.550;2023-06-22T01:39:58;97474.47;;;22.44;72.84
21361;BME280;10839;43.206;23.550;2023-06-22T01:42:25;97473.06;;;22.37;73.75
21361;BME280;10839;43.206;23.550;2023-06-22T01:44:55;97489.28;;;22.43;73.76
21361;BME280;10839;43.206;23.550;2023-06-22T01:47:22;97489.25;;;22.38;74.29
21361;BME280;10839;43.206;23.550;2023-06-22T01:49:49;97490.25;;;22.27;74.80
21361;BME280;10839;43.206;23.550;2023-06-22T01:52:20;97485.50;;;22.18;75.49
21361;BME280;10839;43.206;23.550;2023-06-22T01:54:49;97469.16;;;22.01;76.16
21361;BME280;10839;43.206;23.550;2023-06-22T01:57:15;97476.63;;;22.06;76.26
21361;BME280;10839;43.206;23.550;2023-06-22T02:00:04;97486.22;;;22.08;76.39
21361;BME280;10839;43.206;23.550;2023-06-22T02:03:11;97478.69;;;22.20;75.40
21361;BME280;10839;43.206;23.550;2023-06-22T02:05:52;97476.91;;;22.09;75.80
21361;BME280;10839;43.206;23.550;2023-06-22T02:08:24;97481.47;;;22.25;75.30
21361;BME280;10839;43.206;23.550;2023-06-22T02:10:52;97477.22;;;22.13;75.84
21361;BME280;10839;43.206;23.550;2023-06-22T02:13:20;97480.22;;;22.11;75.99
21361;BME280;10839;43.206;23.550;2023-06-22T02:15:47;97470.09;;;22.12;76.04
21361;BME280;10839;43.206;23.550;2023-06-22T02:18:14;97464.47;;;22.28;75.37
21361;BME280;10839;43.206;23.550;2023-06-22T02:20:40;97462.13;;;22.10;76.02
21361;BME280;10839;43.206;23.550;2023-06-22T02:23:06;97461.50;;;22.03;76.99
21361;BME280;10839;43.206;23.550;2023-06-22T02:25:35;97471.84;;;21.96;77.40
21361;BME280;10839;43.206;23.550;2023-06-22T02:28:01;97477.38;;;22.01;76.71
21361;BME280;10839;43.206;23.550;2023-06-22T02:30:27;97471.53;;;21.93;77.11
21361;BME280;10839;43.206;23.550;2023-06-22T02:32:53;97470.81;;;22.02;77.11
21361;BME280;10839;43.206;23.550;2023-06-22T02:35:26;97478.78;;;22.04;77.14
21361;BME280;10839;43.206;23.550;2023-06-22T02:37:52;97483.44;;;22.03;77.51
21361;BME280;10839;43.206;23.550;2023-06-22T02:40:18;97485.66;;;22.06;77.97
21361;BME280;10839;43.206;23.550;2023-06-22T02:42:44;97491.50;;;21.88;79.71
21361;BME280;10839;43.206;23.550;2023-06-22T02:45:10;97490.50;;;21.94;78.13
21361;BME280;10839;43.206;23.550;2023-06-22T02:47:36;97489.13;;;21.97;77.85
21361;BME280;10839;43.206;23.550;2023-06-22T02:50:03;97504.41;;;22.19;76.72
21361;BME280;10839;43.206;23.550;2023-06-22T02:52:32;97509.63;;;21.89;79.70
21361;BME280;10839;43.206;23.550;2023-06-22T02:55:00;97501.19;;;21.74;81.49
21361;BME280;10839;43.206;23.550;2023-06-22T02:57:26;97504.47;;;21.76;81.24
21361;BME280;10839;43.206;23.550;2023-06-22T02:59:52;97504.22;;;21.99;80.29
21361;BME280;10839;43.206;23.550;2023-06-22T03:02:18;97508.38;;;22.02;78.77
21361;BME280;10839;43.206;23.550;2023-06-22T03:04:47;97513.63;;;22.08;78.36
21361;BME280;10839;43.206;23.550;2023-06-22T03:07:21;97512.00;;;22.07;78.19
21361;BME280;10839;43.206;23.550;2023-06-22T03:09:49;97525.00;;;22.48;76.08
21361;BME280;10839;43.206;23.550;2023-06-22T03:12:15;97515.78;;;22.59;75.07
21361;BME280;10839;43.206;23.550;2023-06-22T03:14:51;97514.97;;;22.96;73.65
21361;BME280;10839;43.206;23.550;2023-06-22T03:17:17;97540.28;;;23.08;72.80
21361;BME280;10839;43.206;23.550;2023-06-22T03:19:43;97538.03;;;23.00;72.96
21361;BME280;10839;43.206;23.550;2023-06-22T03:22:09;97536.00;;;23.22;72.48
21361;BME280;10839;43.206;23.550;2023-06-22T03:24:35;97531.25;;;23.49;70.51
21361;BME280;10839;43.206;23.550;2023-06-22T03:27:03;97533.47;;;23.57;70.03
21361;BME280;10839;43.206;23.550;2023-06-22T03:29:33;97515.81;;;23.43;70.05
21361;BME280;10839;43.206;23.550;2023-06-22T03:32:00;97523.59;;;23.61;69.74
21361;BME280;10839;43.206;23.550;2023-06-22T03:34:27;97524.47;;;23.25;71.22
21361;BME280;10839;43.206;23.550;2023-06-22T03:36:53;97525.75;;;23.49;70.15
21361;BME280;10839;43.206;23.550;2023-06-22T03:39:18;97528.53;;;23.59;69.70
21361;BME280;10839;43.206;23.550;2023-06-22T03:41:46;97528.63;;;23.84;69.07
21361;BME280;10839;43.206;23.550;2023-06-22T03:44:11;97524.66;;;23.55;69.71
21361;BME280;10839;43.206;23.550;2023-06-22T03:46:38;97534.28;;;23.11;71.92
21361;BME280;10839;43.206;23.550;2023-06-22T03:49:04;97531.38;;;22.86;72.98
21361;BME280;10839;43.206;23.550;2023-06-22T03:51:31;97515.88;;;22.69;74.03
21361;BME280;10839;43.206;23.550;2023-06-22T03:53:57;97523.78;;;22.66;74.53
21361;BME280;10839;43.206;23.550;2023-06-22T03:56:23;97521.56;;;23.00;73.14
21361;BME280;10839;43.206;23.550;2023-06-22T03:58:49;97519.06;;;23.35;71.29
21361;BME280;10839;43.206;23.550;2023-06-22T04:01:15;97509.78;;;23.46;71.63
21361;BME280;10839;43.206;23.550;2023-06-22T04:03:42;97502.72;;;23.65;70.98
21361;BME280;10839;43.206;23.550;2023-06-22T04:06:08;97511.63;;;23.97;69.69
21361;BME280;10839;43.206;23.550;2023-06-22T04:08:34;97510.63;;;24.23;68.13
21361;BME280;10839;43.206;23.550;2023-06-22T04:11:00;97510.13;;;24.76;66.46
21361;BME280;10839;43.206;23.550;2023-06-22T04:13:25;97514.91;;;25.65;62.55
21361;BME280;10839;43.206;23.550;2023-06-22T04:15:51;97512.22;;;26.52;58.54
21361;BME280;10839;43.206;23.550;2023-06-22T04:18:17;97513.75;;;26.73;58.02
21361;BME280;10839;43.206;23.550;2023-06-22T04:20:43;97500.28;;;26.95;57.34
21361;BME280;10839;43.206;23.550;2023-06-22T04:23:12;97512.03;;;27.39;55.75
21361;BME280;10839;43.206;23.550;2023-06-22T04:25:39;97496.50;;;28.09;53.48
21361;BME280;10839;43.206;23.550;2023-06-22T04:28:05;97507.91;;;27.60;54.07
21361;BME280;10839;43.206;23.550;2023-06-22T04:30:33;97511.63;;;27.22;55.33
21361;BME280;10839;43.206;23.550;2023-06-22T04:32:58;97512.59;;;26.79;56.50
21361;BME280;10839;43.206;23.550;2023-06-22T04:35:25;97516.19;;;27.37;55.27
21361;BME280;10839;43.206;23.550;2023-06-22T04:37:53;97521.03;;;28.16;52.36
21361;BME280;10839;43.206;23.550;2023-06-22T04:40:22;97529.78;;;29.56;48.95
21361;BME280;10839;43.206;23.550;2023-06-22T04:42:48;97538.88;;;31.01;45.34
21361;BME280;10839;43.206;23.550;2023-06-22T04:45:19;97538.94;;;32.01;43.52
21361;BME280;10839;43.206;23.550;2023-06-22T04:47:46;97541.84;;;31.88;42.73
21361;BME280;10839;43.206;23.550;2023-06-22T04:50:12;97542.56;;;31.71;43.11
21361;BME280;10839;43.206;23.550;2023-06-22T04:52:38;97541.38;;;32.42;42.01
21361;BME280;10839;43.206;23.550;2023-06-22T04:55:06;97548.94;;;32.76;40.87
21361;BME280;10839;43.206;23.550;2023-06-22T04:57:32;97553.56;;;32.15;42.14
21361;BME280;10839;43.206;23.550;2023-06-22T04:59:59;97556.75;;;34.05;39.21
21361;BME280;10839;43.206;23.550;2023-06-22T05:02:37;97563.22;;;34.76;37.78
21361;BME280;10839;43.206;23.550;2023-06-22T05:05:03;97552.13;;;33.63;39.26
21361;BME280;10839;43.206;23.550;2023-06-22T05:07:33;97576.34;;;33.42;39.98
21361;BME280;10839;43.206;23.550;2023-06-22T05:10:00;97574.34;;;33.42;40.01
21361;BME280;10839;43.206;23.550;2023-06-22T05:12:27;97580.56;;;34.40;38.42
21361;BME280;10839;43.206;23.550;2023-06-22T05:14:54;97574.28;;;33.68;39.53
21361;BME280;10839;43.206;23.550;2023-06-22T05:17:20;97573.06;;;33.06;40.46
21361;BME280;10839;43.206;23.550;2023-06-22T05:19:46;97576.78;;;34.45;38.68
21361;BME280;10839;43.206;23.550;2023-06-22T05:22:17;97580.09;;;35.50;37.11
21361;BME280;10839;43.206;23.550;2023-06-22T05:24:43;97583.25;;;36.65;35.33
21361;BME280;10839;43.206;23.550;2023-06-22T05:27:10;97571.31;;;36.92;35.00
21361;BME280;10839;43.206;23.550;2023-06-22T05:29:36;97578.91;;;37.59;33.84
21361;BME280;10839;43.206;23.550;2023-06-22T05:32:03;97585.25;;;37.29;34.28
21361;BME280;10839;43.206;23.550;2023-06-22T05:34:28;97576.16;;;37.07;34.66
21361;BME280;10839;43.206;23.550;2023-06-22T05:36:54;97579.78;;;36.56;35.45
21361;BME280;10839;43.206;23.550;2023-06-22T05:39:20;97577.66;;;37.17;34.23
21361;BME280;10839;43.206;23.550;2023-06-22T05:41:46;97578.72;;;38.11;32.60
21361;BME280;10839;43.206;23.550;2023-06-22T05:44:12;97571.88;;;37.38;33.56
21361;BME280;10839;43.206;23.550;2023-06-22T05:46:42;97585.44;;;37.36;33.87
21361;BME280;10839;43.206;23.550;2023-06-22T05:49:11;97578.72;;;37.25;33.98
21361;BME280;10839;43.206;23.550;2023-06-22T05:51:37;97577.97;;;38.45;32.52
21361;BME280;10839;43.206;23.550;2023-06-22T05:54:03;97589.69;;;37.85;33.41
21361;BME280;10839;43.206;23.550;2023-06-22T05:56:29;97589.94;;;37.80;33.31
21361;BME280;10839;43.206;23.550;2023-06-22T05:58:56;97582.28;;;37.37;33.24
21361;BME280;10839;43.206;23.550;2023-06-22T06:01:23;97584.88;;;38.63;31.74
21361;BME280;10839;43.206;23.550;2023-06-22T06:03:52;97580.94;;;37.47;32.66
21361;BME280;10839;43.206;23.550;2023-06-22T06:06:19;97566.88;;;37.31;33.05
21361;BME280;10839;43.206;23.550;2023-06-22T06:08:54;97573.03;;;38.73;31.27
21361;BME280;10839;43.206;23.550;2023-06-22T06:11:22;97573.31;;;38.18;31.10
21361;BME280;10839;43.206;23.550;2023-06-22T06:13:48;97579.53;;;36.25;33.82
21361;BME280;10839;43.206;23.550;2023-06-22T06:16:15;97571.56;;;35.26;35.00
21361;BME280;10839;43.206;23.550;2023-06-22T06:18:43;97567.84;;;34.51;36.29
21361;BME280;10839;43.206;23.550;2023-06-22T06:21:09;97565.72;;;33.73;37.99
21361;BME280;10839;43.206;23.550;2023-06-22T06:23:35;97573.22;;;33.09;39.51
21361;BME280;10839;43.206;23.550;2023-06-22T06:26:00;97567.78;;;32.62;40.87
21361;BME280;10839;43.206;23.550;2023-06-22T06:28:27;97570.06;;;32.60;41.04
21361;BME280;10839;43.206;23.550;2023-06-22T06:30:55;97565.75;;;32.36;42.03
21361;BME280;10839;43.206;23.550;2023-06-22T06:33:22;97566.09;;;31.87;43.37
21361;BME280;10839;43.206;23.550;2023-06-22T06:35:49;97561.56;;;31.69;42.94
21361;BME280;10839;43.206;23.550;2023-06-22T06:38:21;97567.28;;;31.73;43.76
21361;BME280;10839;43.206;23.550;2023-06-22T06:40:46;97568.03;;;31.56;44.87
21361;BME280;10839;43.206;23.550;2023-06-22T06:43:14;97567.47;;;31.76;45.21
21361;BME280;10839;43.206;23.550;2023-06-22T06:45:40;97573.31;;;31.66;45.77
21361;BME280;10839;43.206;23.550;2023-06-22T06:48:08;97571.84;;;31.38;46.32
21361;BME280;10839;43.206;23.550;2023-06-22T06:50:34;97563.88;;;31.45;46.91
21361;BME280;10839;43.206;23.550;2023-06-22T06:53:03;97564.03;;;31.40;46.00
21361;BME280;10839;43.206;23.550;2023-06-22T06:55:29;97574.25;;;30.73;47.83
21361;BME280;10839;43.206;23.550;2023-06-22T06:58:02;97565.09;;;30.73;48.60
21361;BME280;10839;43.206;23.550;2023-06-22T07:00:33;97561.94;;;30.66;48.41
21361;BME280;10839;43.206;23.550;2023-06-22T07:02:59;97559.41;;;30.56;49.94
21361;BME280;10839;43.206;23.550;2023-06-22T07:05:25;97577.50;;;30.53;50.00
21361;BME280;10839;43.206;23.550;2023-06-22T07:07:53;97571.34;;;30.92;48.33
21361;BME280;10839;43.206;23.550;2023-06-22T07:10:19;97583.03;;;30.67;48.44
21361;BME280;10839;43.206;23.550;2023-06-22T07:12:45;97581.19;;;31.20;47.79
21361;BME280;10839;43.206;23.550;2023-06-22T07:15:13;97578.94;;;31.00;48.60
21361;BME280;10839;43.206;23.550;2023-06-22T07:17:40;97578.16;;;31.08;48.54
21361;BME280;10839;43.206;23.550;2023-06-22T07:20:06;97586.50;;;31.30;48.13
21361;BME280;10839;43.206;23.550;2023-06-22T07:22:43;97584.75;;;31.12;48.82
21361;BME280;10839;43.206;23.550;2023-06-22T07:25:10;97593.22;;;31.51;47.74
21361;BME280;10839;43.206;23.550;2023-06-22T07:27:46;97589.22;;;31.96;46.50
21361;BME280;10839;43.206;23.550;2023-06-22T07:30:13;97578.16;;;31.52;46.87
21361;BME280;10839;43.206;23.550;2023-06-22T07:32:40;97584.19;;;31.76;47.10
21361;BME280;10839;43.206;23.550;2023-06-22T07:35:06;97586.75;;;31.64;47.81
21361;BME280;10839;43.206;23.550;2023-06-22T07:37:32;97577.44;;;31.69;48.58
21361;BME280;10839;43.206;23.550;2023-06-22T07:39:59;97592.69;;;32.50;47.23
21361;BME280;10839;43.206;23.550;2023-06-22T07:42:26;97603.03;;;33.77;45.68
21361;BME280;10839;43.206;23.550;2023-06-22T07:44:53;97601.81;;;34.33;43.90
21361;BME280;10839;43.206;23.550;2023-06-22T07:47:20;97602.06;;;34.77;43.21
21361;BME280;10839;43.206;23.550;2023-06-22T07:49:50;97599.06;;;34.82;42.06
21361;BME280;10839;43.206;23.550;2023-06-22T07:52:16;97588.06;;;35.72;40.87
21361;BME280;10839;43.206;23.550;2023-06-22T07:54:42;97591.88;;;35.55;40.06
21361;BME280;10839;43.206;23.550;2023-06-22T07:57:08;97584.84;;;35.29;40.53
21361;BME280;10839;43.206;23.550;2023-06-22T07:59:34;97583.50;;;36.00;39.80
21361;BME280;10839;43.206;23.550;2023-06-22T08:02:01;97585.03;;;36.22;40.57
21361;BME280;10839;43.206;23.550;2023-06-22T08:04:29;97579.91;;;36.36;40.22
21361;BME280;10839;43.206;23.550;2023-06-22T08:06:56;97586.09;;;36.53;40.44
21361;BME280;10839;43.206;23.550;2023-06-22T08:09:22;97582.78;;;36.75;40.05
21361;BME280;10839;43.206;23.550;2023-06-22T08:11:48;97583.25;;;36.17;40.36
21361;BME280;10839;43.206;23.550;2023-06-22T08:14:14;97577.56;;;36.38;40.34
21361;BME280;10839;43.206;23.550;2023-06-22T08:16:41;97570.41;;;36.64;40.34
21361;BME280;10839;43.206;23.550;2023-06-22T08:19:07;97574.72;;;36.26;39.65
21361;BME280;10839;43.206;23.550;2023-06-22T08:21:33;97575.91;;;36.61;39.93
21361;BME280;10839;43.206;23.550;2023-06-22T08:23:59;97580.50;;;36.53;39.61
21361;BME280;10839;43.206;23.550;2023-06-22T08:26:25;97585.03;;;36.58;38.49
21361;BME280;10839;43.206;23.550;2023-06-22T08:28:51;97574.13;;;36.80;38.57
21361;BME280;10839;43.206;23.550;2023-06-22T08:31:16;97576.91;;;36.92;38.07
21361;BME280;10839;43.206;23.550;2023-06-22T08:33:42;97573.16;;;37.00;38.83
21361;BME280;10839;43.206;23.550;2023-06-22T08:36:11;97565.91;;;36.99;37.75
21361;BME280;10839;43.206;23.550;2023-06-22T08:38:39;97563.97;;;36.88;37.68
21361;BME280;10839;43.206;23.550;2023-06-22T08:41:05;97569.91;;;37.54;37.50
21361;BME280;10839;43.206;23.550;2023-06-22T08:43:31;97576.81;;;37.29;37.74
21361;BME280;10839;43.206;23.550;2023-06-22T08:45:57;97569.81;;;37.22;37.38
21361;BME280;10839;43.206;23.550;2023-06-22T08:48:23;97579.25;;;36.90;37.22
21361;BME280;10839;43.206;23.550;2023-06-22T08:50:48;97572.75;;;36.86;36.02
21361;BME280;10839;43.206;23.550;2023-06-22T08:53:14;97571.19;;;36.77;37.35
21361;BME280;10839;43.206;23.550;2023-06-22T08:55:40;97572.94;;;36.93;37.72
21361;BME280;10839;43.206;23.550;2023-06-22T08:58:06;97573.88;;;36.97;38.40
21361;BME280;10839;43.206;23.550;2023-06-22T09:00:32;97566.97;;;36.95;37.77
21361;BME280;10839;43.206;23.550;2023-06-22T09:03:00;97563.19;;;36.51;38.89
21361;BME280;10839;43.206;23.550;2023-06-22T09:05:26;97561.03;;;36.72;38.77
21361;BME280;10839;43.206;23.550;2023-06-22T09:07:52;97567.84;;;36.59;38.27
21361;BME280;10839;43.206;23.550;2023-06-22T09:10:20;97569.63;;;36.40;37.53
21361;BME280;10839;43.206;23.550;2023-06-22T09:12:46;97564.25;;;36.98;36.56
21361;BME280;10839;43.206;23.550;2023-06-22T09:15:12;97558.22;;;36.84;37.00
21361;BME280;10839;43.206;23.550;2023-06-22T09:17:38;97541.28;;;36.81;36.35
21361;BME280;10839;43.206;23.550;2023-06-22T09:20:04;97550.69;;;35.56;38.46
21361;BME280;10839;43.206;23.550;2023-06-22T09:22:37;97553.75;;;35.75;39.37
21361;BME280;10839;43.206;23.550;2023-06-22T09:25:03;97555.00;;;36.58;37.68
21361;BME280;10839;43.206;23.550;2023-06-22T09:27:29;97560.03;;;36.17;38.25
21361;BME280;10839;43.206;23.550;2023-06-22T09:29:55;97549.00;;;35.87;39.63
21361;BME280;10839;43.206;23.550;2023-06-22T09:32:21;97546.59;;;35.98;39.18
21361;BME280;10839;43.206;23.550;2023-06-22T09:34:47;97552.88;;;35.95;37.73
21361;BME280;10839;43.206;23.550;2023-06-22T09:37:13;97544.59;;;35.42;38.64
21361;BME280;10839;43.206;23.550;2023-06-22T09:39:39;97554.09;;;35.61;39.24
21361;BME280;10839;43.206;23.550;2023-06-22T09:42:05;97557.50;;;35.14;39.53
21361;BME280;10839;43.206;23.550;2023-06-22T09:44:31;97555.38;;;35.76;39.71
21361;BME280;10839;43.206;23.550;2023-06-22T09:46:57;97554.66;;;36.36;38.57
21361;BME280;10839;43.206;23.550;2023-06-22T09:49:23;97552.56;;;36.33;38.38
21361;BME280;10839;43.206;23.550;2023-06-22T09:51:49;97548.34;;;35.58;40.13
21361;BME280;10839;43.206;23.550;2023-06-22T09:54:16;97546.34;;;36.27;38.67
21361;BME280;10839;43.206;23.550;2023-06-22T09:56:42;97553.31;;;35.85;39.18
21361;BME280;10839;43.206;23.550;2023-06-22T09:59:09;97549.19;;;35.38;39.20
21361;BME280;10839;43.206;23.550;2023-06-22T10:01:35;97544.25;;;36.00;38.79
21361;BME280;10839;43.206;23.550;2023-06-22T10:04:03;97548.19;;;35.99;39.63
21361;BME280;10839;43.206;23.550;2023-06-22T10:06:29;97551.69;;;36.32;39.56
21361;BME280;10839;43.206;23.550;2023-06-22T10:08:57;97554.75;;;36.63;39.24
21361;BME280;10839;43.206;23.550;2023-06-22T10:11:23;97559.13;;;36.37;39.03
21361;BME280;10839;43.206;23.550;2023-06-22T10:13:54;97547.63;;;36.06;39.67
21361;BME280;10839;43.206;23.550;2023-06-22T10:16:20;97546.59;;;35.98;39.82
21361;BME280;10839;43.206;23.550;2023-06-22T10:18:47;97558.53;;;36.43;38.50
21361;BME280;10839;43.206;23.550;2023-06-22T10:21:13;97552.69;;;36.36;38.10
21361;BME280;10839;43.206;23.550;2023-06-22T10:23:39;97554.88;;;36.31;40.08
21361;BME280;10839;43.206;23.550;2023-06-22T10:26:05;97550.91;;;36.56;39.22
21361;BME280;10839;43.206;23.550;2023-06-22T10:28:31;97556.28;;;36.25;39.26
21361;BME280;10839;43.206;23.550;2023-06-22T10:30:57;97551.03;;;36.11;40.08
21361;BME280;10839;43.206;23.550;2023-06-22T10:33:24;97559.44;;;36.35;39.70
21361;BME280;10839;43.206;23.550;2023-06-22T10:35:53;97552.31;;;36.50;39.36
21361;BME280;10839;43.206;23.550;2023-06-22T10:38:18;97548.84;;;35.72;39.77
21361;BME280;10839;43.206;23.550;2023-06-22T10:40:44;97552.50;;;35.40;40.36
21361;BME280;10839;43.206;23.550;2023-06-22T10:43:10;97559.38;;;35.10;41.55
21361;BME280;10839;43.206;23.550;2023-06-22T10:45:36;97552.88;;;34.76;41.61
21361;BME280;10839;43.206;23.550;2023-06-22T10:48:02;97557.28;;;33.99;42.96
21361;BME280;10839;43.206;23.550;2023-06-22T10:50:29;97544.06;;;34.08;43.31
21361;BME280;10839;43.206;23.550;2023-06-22T10:52:55;97557.00;;;34.21;43.05
21361;BME280;10839;43.206;23.550;2023-06-22T10:55:20;97558.19;;;34.11;43.72
21361;BME280;10839;43.206;23.550;2023-06-22T10:57:47;97561.72;;;34.00;42.62
21361;BME280;10839;43.206;23.550;2023-06-22T11:00:14;97548.91;;;33.90;43.41
21361;BME280;10839;43.206;23.550;2023-06-22T11:02:41;97564.69;;;33.86;43.15
21361;BME280;10839;43.206;23.550;2023-06-22T11:05:08;97561.50;;;33.67;43.43
21361;BME280;10839;43.206;23.550;2023-06-22T11:07:37;97563.16;;;33.59;44.39
21361;BME280;10839;43.206;23.550;2023-06-22T11:10:04;97569.09;;;34.33;42.68
21361;BME280;10839;43.206;23.550;2023-06-22T11:12:30;97566.59;;;34.11;43.19
21361;BME280;10839;43.206;23.550;2023-06-22T11:14:56;97566.81;;;33.98;43.32
21361;BME280;10839;43.206;23.550;2023-06-22T11:17:22;97567.19;;;34.25;42.99
21361;BME280;10839;43.206;23.550;2023-06-22T11:19:48;97564.28;;;35.13;41.23
21361;BME280;10839;43.206;23.550;2023-06-22T11:22:14;97581.81;;;35.01;41.73
21361;BME280;10839;43.206;23.550;2023-06-22T11:24:40;97577.47;;;34.62;43.74
21361;BME280;10839;43.206;23.550;2023-06-22T11:27:06;97563.28;;;34.67;43.70
21361;BME280;10839;43.206;23.550;2023-06-22T11:29:32;97561.63;;;35.49;42.62
21361;BME280;10839;43.206;23.550;2023-06-22T11:31:58;97564.78;;;34.85;43.44
21361;BME280;10839;43.206;23.550;2023-06-22T11:34:24;97571.34;;;34.48;44.51
21361;BME280;10839;43.206;23.550;2023-06-22T11:36:50;97564.13;;;34.68;44.53
21361;BME280;10839;43.206;23.550;2023-06-22T11:39:16;97563.94;;;35.14;43.48
21361;BME280;10839;43.206;23.550;2023-06-22T11:41:42;97570.78;;;34.75;42.80
21361;BME280;10839;43.206;23.550;2023-06-22T11:44:09;97560.28;;;34.72;43.42
21361;BME280;10839;43.206;23.550;2023-06-22T11:46:35;97556.47;;;33.98;44.22
21361;BME280;10839;43.206;23.550;2023-06-22T11:49:03;97554.84;;;33.97;44.32
21361;BME280;10839;43.206;23.550;2023-06-22T11:51:29;97551.81;;;34.02;44.35
21361;BME280;10839;43.206;23.550;2023-06-22T11:53:57;97543.09;;;33.66;45.36
21361;BME280;10839;43.206;23.550;2023-06-22T11:56:23;97541.41;;;33.82;45.18
21361;BME280;10839;43.206;23.550;2023-06-22T11:58:49;97544.75;;;33.67;45.35
21361;BME280;10839;43.206;23.550;2023-06-22T12:01:15;97551.03;;;33.30;47.04
21361;BME280;10839;43.206;23.550;2023-06-22T12:03:43;97554.28;;;33.49;46.31
21361;BME280;10839;43.206;23.550;2023-06-22T12:06:10;97555.47;;;33.94;45.54
21361;BME280;10839;43.206;23.550;2023-06-22T12:08:36;97552.59;;;34.11;45.32
21361;BME280;10839;43.206;23.550;2023-06-22T12:11:01;97557.97;;;34.25;45.04
21361;BME280;10839;43.206;23.550;2023-06-22T12:13:29;97551.91;;;34.52;44.80
21361;BME280;10839;43.206;23.550;2023-06-22T12:15:55;97553.09;;;34.42;45.12
21361;BME280;10839;43.206;23.550;2023-06-22T12:18:23;97539.13;;;34.42;45.00
21361;BME280;10839;43.206;23.550;2023-06-22T12:20:49;97543.31;;;33.90;45.71
21361;BME280;10839;43.206;23.550;2023-06-22T12:23:15;97550.53;;;34.29;45.46
21361;BME280;10839;43.206;23.550;2023-06-22T12:25:42;97546.38;;;34.43;45.78
21361;BME280;10839;43.206;23.550;2023-06-22T12:28:08;97538.72;;;33.94;47.00
21361;BME280;10839;43.206;23.550;2023-06-22T12:30:33;97538.06;;;33.42;47.82
21361;BME280;10839;43.206;23.550;2023-06-22T12:32:59;97529.06;;;33.20;48.86
21361;BME280;10839;43.206;23.550;2023-06-22T12:35:26;97525.00;;;33.09;50.25
21361;BME280;10839;43.206;23.550;2023-06-22T12:37:52;97528.09;;;33.71;49.37
21361;BME280;10839;43.206;23.550;2023-06-22T12:40:20;97527.31;;;34.08;48.21
21361;BME280;10839;43.206;23.550;2023-06-22T12:42:46;97525.06;;;33.55;48.67
21361;BME280;10839;43.206;23.550;2023-06-22T12:45:12;97520.72;;;33.03;49.73
21361;BME280;10839;43.206;23.550;2023-06-22T12:47:38;97524.16;;;33.17;50.66
21361;BME280;10839;43.206;23.550;2023-06-22T12:50:04;97520.03;;;33.23;50.70
21361;BME280;10839;43.206;23.550;2023-06-22T12:52:31;97527.50;;;33.65;48.92
21361;BME280;10839;43.206;23.550;2023-06-22T12:54:58;97519.16;;;33.48;50.06
21361;BME280;10839;43.206;23.550;2023-06-22T12:57:23;97521.19;;;33.22;50.28